West Farmington, Ohio
Current Conditions -  °F | °C
As of 10:51 AM on Tuesday 21 Oct 2014 (Local Time) from KYNG Reporting Station
Light Rain Light Rain  
Wind Chill: 50°   Ceiling: 600
Heat Index: 50°   Visibility: 3mi
Dew Point: 48°   Wind: 10mph
Humidity: 93%   Direction: 310°NW
Pressure: 29.89"   Gusts: NA
Location:  41.39°N, 80.97°W
Report Text: KYNG 211451Z 31009KT 3SM -RA BR BKN006 OVC018 10/09 A2989 RMK AO2 SLP125 P0002 60005 T01000089 51014
Loading
Personal Weather Stations






























Interactive Weather Map
Tropical Storm Tracking
New forecast layout! Learn more

10-Day Weather Forecast

Advertisements
Track Severe Weather on mobile